Kuala Lumpur International Airport


Codes: WMKK/KUL
Name: Kuala Lumpur International Airport
City: Kuala Lumpur
Country: Malaysia
Elevation: 69 ft.
Wikipedia:

Photos at Kuala Lumpur International Airport


   Photos courtesy of SpottingLog. You can add your own sightings and photos by signing up for a free trial today.



PK-TLD, 21-Feb-2024
© Daniel Ouston

9M-LCW, 21-Feb-2024
© Daniel Ouston

A4O-DG, 21-Feb-2024
© Daniel Ouston

TC-LJK, 21-Feb-2024
© Daniel Ouston

9M-MTU, 21-Feb-2024
© Daniel Ouston

9M-LCM, 21-Feb-2024
© Daniel Ouston

9V-SGA, 21-Feb-2024
© Daniel Ouston

B-5791, 21-Feb-2024
© Daniel Ouston

RP-C9936, 14-Nov-2022
© Tomo-Papa

9V-MBK, 14-Nov-2022
© Tomo-Papa

9M-MXG, 14-Nov-2022
© Tomo-Papa

9M-AFW, 14-Nov-2022
© Tomo-Papa


Weather at Kuala Lumpur International Airport


Time (UTC)DescriptionTempratureWindCloud coverageVisibilityPressureHumidity
15-Apr-2024 18:00Light Rain26°C4 mph, E60%10000m1010hPa94%
15-Apr-2024 21:00Light Rain25°C2 mph, E80%10000m1009hPa94%
16-Apr-2024 00:00Light Rain26°C2 mph, E100%10000m1010hPa92%
16-Apr-2024 03:00Light Rain28°C4 mph, SE100%10000m1011hPa83%
16-Apr-2024 06:00Light Rain29°C4 mph, S100%10000m1009hPa80%
16-Apr-2024 09:00Overcast Clouds29°C2 mph, SW100%10000m1007hPa82%
16-Apr-2024 12:00Moderate Rain26°C2 mph, S93%2196m1008hPa92%
16-Apr-2024 15:00Moderate Rain26°C2 mph, S100%10000m1010hPa91%
16-Apr-2024 18:00Light Rain25°C2 mph, SE100%10000m1009hPa93%
16-Apr-2024 21:00Light Rain25°C2 mph, NE100%10000m1008hPa94%
17-Apr-2024 00:00Light Rain25°C2 mph, NE100%10000m1010hPa93%
17-Apr-2024 03:00Moderate Rain30°C2 mph, SW100%10000m1011hPa75%
17-Apr-2024 06:00Light Rain31°C4 mph, SW99%10000m1008hPa70%
17-Apr-2024 09:00Light Rain30°C4 mph, S93%10000m1006hPa73%
17-Apr-2024 12:00Moderate Rain25°C4 mph, SW96%6996m1008hPa95%
17-Apr-2024 15:00Moderate Rain24°C4 mph, NE100%6284m1010hPa98%
17-Apr-2024 18:00Light Rain25°C4 mph, N100%10000m1009hPa97%
17-Apr-2024 21:00Overcast Clouds24°C4 mph, N98%10000m1008hPa97%
18-Apr-2024 00:00Overcast Clouds25°C2 mph, NW98%10000m1010hPa92%
18-Apr-2024 03:00Light Rain29°C2 mph, SW100%3177m1011hPa79%
18-Apr-2024 06:00Light Rain31°C7 mph, W100%10000m1009hPa70%
18-Apr-2024 09:00Moderate Rain28°C4 mph, SW100%10000m1007hPa85%
18-Apr-2024 12:00Light Rain26°C2 mph, S100%10000m1008hPa92%
18-Apr-2024 15:00Overcast Clouds25°C0 mph, W100%10000m1010hPa93%
18-Apr-2024 18:00Overcast Clouds25°C2 mph, N98%10000m1009hPa95%
18-Apr-2024 21:00Broken Clouds24°C2 mph, N65%10000m1007hPa97%
19-Apr-2024 00:00Broken Clouds25°C2 mph, NE71%10000m1009hPa92%
19-Apr-2024 03:00Overcast Clouds30°C4 mph, NW100%10000m1010hPa69%
19-Apr-2024 06:00Light Rain31°C4 mph, SW95%10000m1007hPa71%
19-Apr-2024 09:00Light Rain31°C4 mph, SW100%10000m1005hPa68%
19-Apr-2024 12:00Broken Clouds26°C4 mph, SW60%10000m1007hPa88%
19-Apr-2024 15:00Few Clouds25°C4 mph, NW15%10000m1009hPa91%
19-Apr-2024 18:00Scattered Clouds25°C2 mph, N39%10000m1007hPa91%
19-Apr-2024 21:00Scattered Clouds25°C2 mph, N29%10000m1007hPa93%
20-Apr-2024 00:00Broken Clouds26°C2 mph, N59%10000m1009hPa90%
20-Apr-2024 03:00Overcast Clouds31°C4 mph, NW93%10000m1009hPa66%
20-Apr-2024 06:00Light Rain31°C7 mph, W96%8154m1007hPa70%
20-Apr-2024 09:00Light Rain31°C7 mph, NW100%10000m1006hPa69%
20-Apr-2024 12:00Overcast Clouds26°C4 mph, NW100%10000m1007hPa90%
20-Apr-2024 15:00Overcast Clouds25°C4 mph, N100%10000m1009hPa91%